KMVN/MVN METAR and TAF weather

Enter ICAO airport designator
Station Type Date Time Source
KMVN METAR 2020/02/26 09:56 UTC NOAA

KMVN 260956Z AUTO VRB05KT 10SM OVC010 02/00 A2997 RMK AO2 SLP155 T00170000 FZRANO


Station Type Date Time Source
KMVN Decoded METAR 2020/02/26 09:56 UTC NOAA

Mount Vernon, Mount Vernon Airport, IL, United States (KMVN) 38-19N 088-52W
Feb 26, 2020 - 04:56 AM EST / 2020.02.26 0956 UTC
Wind: Variable at 6 MPH (5 KT):0
Visibility: 10 mile(s):0
Sky conditions: overcast
Temperature: 35.1 F (1.7 C)
Dew Point: 32.0 F (0.0 C)
Relative Humidity: 88%
Pressure (altimeter): 29.97 in. Hg (1014 hPa)
ob: KMVN 260956Z AUTO VRB05KT 10SM OVC010 02/00 A2997 RMK AO2 SLP155 T00170000 FZRANO
cycle: 10

Station Type Date Time Source
KMVN TAF 2020/02/26 06:36 UTC NOAA

TAF KMVN 260533Z 2606/2706 32005KT 6SM BR OVC009
FM261000 33008KT 4SM -RA BR OVC004
FM261500 33012KT 3SM -SNRA BR OVC012
FM261800 33016G22KT P6SM OVC020
FM262200 31008KT P6SM BKN050

Example: see airport list